In Rescue
 
Open Full Screen Window  High Contrast Mode
Wind Gusting 00 knots
12
March 29, 2020 6:58 PM CDT
Weather Information
Wind Direction
  310 °
Wind Speed
  12 kt (14 mph)
Wind Gust
  00 kt (0 mph)
Altimeter
30.00 in
Visibility
10 SM
Temperature
10° C
50° F
Dewpoint
00° C
32° F
Humidity
50%
1hr Rain Fall
00.00 in.
24hr Rain Fall
00.06 in.
Sky Condition
Clear
VFR

METAR KMWM 292358Z AUTO 31012KT 10SM CLR 10/00 A3000 RMK AO2

FAA Disclaimer: The data displayed is for advisory purposes only and is not to be used for flight planning or operations.